createdAt,value
2022-09-15T00:00:39.311Z,17.99
2022-09-15T00:02:47.149Z,18.03
2022-09-15T00:04:51.978Z,18.00
2022-09-15T00:06:56.783Z,18.01
2022-09-15T00:09:01.926Z,18.02
2022-09-15T00:11:10.141Z,18.04
2022-09-15T00:13:14.899Z,18.05
2022-09-15T00:15:19.767Z,18.03
2022-09-15T00:17:24.679Z,18.00
2022-09-15T00:19:32.084Z,18.01
2022-09-15T00:21:39.959Z,18.04
2022-09-15T00:23:44.746Z,18.08
2022-09-15T00:25:51.168Z,18.06
2022-09-15T00:27:55.930Z,18.09
2022-09-15T00:30:00.745Z,18.10
2022-09-15T00:32:05.774Z,18.07
2022-09-15T00:34:10.486Z,18.02
2022-09-15T00:36:18.835Z,18.01
2022-09-15T00:38:24.166Z,18.00
2022-09-15T00:40:28.993Z,18.02
2022-09-15T00:42:33.998Z,18.04
2022-09-15T00:44:55.387Z,18.08
2022-09-15T00:47:18.182Z,18.06
2022-09-15T00:49:27.551Z,18.08
2022-09-15T00:51:43.956Z,18.07
2022-09-15T00:53:51.100Z,18.09
2022-09-15T00:55:57.207Z,18.12
2022-09-15T00:58:06.721Z,18.16
2022-09-15T01:00:14.743Z,18.18
2022-09-15T01:02:24.527Z,18.18
2022-09-15T01:04:29.644Z,18.20
2022-09-15T01:06:42.276Z,18.21
2022-09-15T01:08:52.827Z,18.22
2022-09-15T01:10:58.013Z,18.22
2022-09-15T01:13:07.025Z,18.24
2022-09-15T01:15:12.214Z,18.22
2022-09-15T01:17:26.750Z,18.27
2022-09-15T01:19:59.494Z,18.26
2022-09-15T01:22:32.553Z,18.27
2022-09-15T01:24:47.143Z,18.29
2022-09-15T01:27:18.456Z,18.31
2022-09-15T01:29:45.709Z,18.32
2022-09-15T01:32:08.398Z,18.31
2022-09-15T01:34:19.612Z,18.33
2022-09-15T01:36:31.316Z,18.35
2022-09-15T01:38:43.050Z,18.36
2022-09-15T01:40:54.168Z,18.37
2022-09-15T01:43:00.988Z,18.29
2022-09-15T01:45:13.060Z,18.33
2022-09-15T01:47:22.044Z,18.32
2022-09-15T01:49:31.775Z,18.30
2022-09-15T01:51:38.027Z,18.32
2022-09-15T01:53:43.711Z,18.33
2022-09-15T01:55:55.409Z,18.37
2022-09-15T01:58:00.803Z,18.38
2022-09-15T02:00:10.651Z,18.39
2022-09-15T02:02:21.203Z,18.40
2022-09-15T02:04:36.708Z,18.38
2022-09-15T02:06:52.193Z,18.36
2022-09-15T02:09:03.218Z,18.35
2022-09-15T02:11:17.044Z,18.23
2022-09-15T02:13:29.674Z,18.21
2022-09-15T02:15:42.365Z,18.22
2022-09-15T02:17:54.300Z,18.21
2022-09-15T02:20:05.674Z,18.19
2022-09-15T02:22:17.753Z,18.18
2022-09-15T02:24:32.593Z,18.18
2022-09-15T02:26:41.334Z,18.19
2022-09-15T02:28:49.904Z,18.22
2022-09-15T02:31:00.329Z,18.23
2022-09-15T02:33:11.709Z,18.25
2022-09-15T02:35:19.828Z,18.29
2022-09-15T02:37:26.477Z,18.29
2022-09-15T02:39:36.136Z,18.27
2022-09-15T02:41:42.184Z,18.26
2022-09-15T02:43:50.604Z,18.26
2022-09-15T02:45:58.102Z,18.30
2022-09-15T02:48:02.974Z,18.30
2022-09-15T02:50:09.341Z,18.32
2022-09-15T02:52:14.290Z,18.30
2022-09-15T02:54:19.065Z,18.30
2022-09-15T02:56:23.866Z,18.30
2022-09-15T02:58:28.619Z,18.31
2022-09-15T03:00:33.532Z,18.31
2022-09-15T03:02:41.157Z,18.32
2022-09-15T03:04:45.965Z,18.31
2022-09-15T03:06:50.874Z,18.31
2022-09-15T03:08:57.451Z,18.31
2022-09-15T03:11:02.170Z,18.33
2022-09-15T03:13:07.908Z,18.32
2022-09-15T03:15:14.906Z,18.31
2022-09-15T03:17:19.696Z,18.30
2022-09-15T03:19:27.072Z,18.31
2022-09-15T03:21:32.505Z,18.29
2022-09-15T03:23:37.437Z,18.32
2022-09-15T03:25:42.223Z,18.31
2022-09-15T03:27:47.190Z,18.32
2022-09-15T03:29:54.723Z,18.34
2022-09-15T03:31:59.704Z,18.38
2022-09-15T03:34:04.532Z,18.38
2022-09-15T03:36:12.708Z,18.35
2022-09-15T03:38:17.828Z,18.36
2022-09-15T03:40:22.378Z,18.32
2022-09-15T03:42:27.669Z,18.21
2022-09-15T03:44:32.490Z,18.19
2022-09-15T03:46:37.655Z,18.06
2022-09-15T03:48:42.718Z,17.97
2022-09-15T03:50:47.633Z,18.04
2022-09-15T03:52:58.755Z,17.99
2022-09-15T03:55:03.703Z,18.02
2022-09-15T03:57:08.437Z,18.08
2022-09-15T03:59:13.226Z,18.02
2022-09-15T04:01:18.765Z,18.06
2022-09-15T04:03:23.555Z,18.08
2022-09-15T04:05:29.038Z,18.05
2022-09-15T04:07:34.529Z,18.09
2022-09-15T04:09:42.051Z,18.14
2022-09-15T04:11:46.893Z,18.21
2022-09-15T04:13:52.154Z,18.26
2022-09-15T04:16:03.824Z,18.23
2022-09-15T04:18:08.699Z,18.07
2022-09-15T04:20:13.516Z,17.97
2022-09-15T04:22:18.288Z,18.01
2022-09-15T04:24:23.066Z,18.05
2022-09-15T04:26:32.693Z,17.94
2022-09-15T04:28:39.637Z,17.94
2022-09-15T04:30:44.354Z,17.81
2022-09-15T04:32:50.099Z,17.84
2022-09-15T04:34:54.856Z,17.79
2022-09-15T04:36:59.620Z,17.81
2022-09-15T04:39:05.626Z,17.83
2022-09-15T04:41:11.459Z,17.87
2022-09-15T04:43:19.109Z,17.72
2022-09-15T04:45:23.879Z,17.71
2022-09-15T04:47:34.927Z,17.62
2022-09-15T04:49:39.695Z,17.63
2022-09-15T04:51:44.489Z,17.57
2022-09-15T04:53:49.738Z,17.67
2022-09-15T04:55:54.222Z,17.71
2022-09-15T04:57:59.062Z,17.86
2022-09-15T05:00:07.686Z,17.84
2022-09-15T05:02:12.660Z,17.94
2022-09-15T05:04:17.482Z,18.05
2022-09-15T05:06:25.010Z,18.07
2022-09-15T05:08:29.998Z,18.13
2022-09-15T05:10:35.247Z,18.15
2022-09-15T05:12:39.761Z,18.08
2022-09-15T05:14:44.619Z,18.13
2022-09-15T05:16:52.006Z,18.10
2022-09-15T05:18:59.330Z,18.13
2022-09-15T05:21:05.564Z,18.18
2022-09-15T05:23:10.680Z,18.25
2022-09-15T05:25:15.433Z,18.27
2022-09-15T05:27:20.156Z,18.31
2022-09-15T05:29:24.968Z,18.37
2022-09-15T05:31:31.465Z,18.27
2022-09-15T05:33:39.146Z,18.22
2022-09-15T05:35:52.018Z,18.28
2022-09-15T05:37:56.851Z,18.36
2022-09-15T05:40:05.166Z,18.31
2022-09-15T05:42:13.073Z,18.40
2022-09-15T05:44:18.151Z,18.35
2022-09-15T05:46:23.177Z,18.41
2022-09-15T05:48:28.346Z,18.39
2022-09-15T05:50:35.496Z,18.34
2022-09-15T05:52:40.431Z,18.41
2022-09-15T05:54:45.176Z,18.37
2022-09-15T05:56:50.010Z,18.49
2022-09-15T05:58:55.250Z,18.52
2022-09-15T06:01:00.321Z,18.61
2022-09-15T06:03:05.673Z,18.58
2022-09-15T06:05:11.578Z,18.64
2022-09-15T06:07:19.395Z,18.61
2022-09-15T06:09:24.368Z,18.64
2022-09-15T06:11:31.207Z,18.64
2022-09-15T06:13:36.267Z,18.73
2022-09-15T06:15:41.025Z,18.69
2022-09-15T06:17:46.152Z,18.66
2022-09-15T06:19:50.901Z,18.63
2022-09-15T06:21:55.689Z,18.60
2022-09-15T06:24:07.226Z,18.54
2022-09-15T06:26:14.411Z,18.54
2022-09-15T06:28:19.663Z,18.63
2022-09-15T06:30:24.475Z,18.59
2022-09-15T06:32:29.478Z,18.46
2022-09-15T06:34:34.987Z,18.35
2022-09-15T06:36:40.774Z,18.27
2022-09-15T06:38:46.145Z,18.35
2022-09-15T06:41:00.330Z,18.41
2022-09-15T06:43:05.267Z,18.27
2022-09-15T06:45:11.112Z,18.26
2022-09-15T06:47:18.437Z,18.27
2022-09-15T06:49:23.471Z,18.17
2022-09-15T06:51:31.428Z,18.12
2022-09-15T06:53:38.183Z,18.05
2022-09-15T06:55:42.955Z,18.06
2022-09-15T06:57:50.299Z,18.03
2022-09-15T06:59:55.131Z,17.94
2022-09-15T07:02:04.720Z,17.84
2022-09-15T07:04:11.122Z,17.85
2022-09-15T07:06:15.855Z,17.67
2022-09-15T07:08:20.592Z,17.64
2022-09-15T07:10:25.457Z,17.46
2022-09-15T07:12:32.045Z,17.42
2022-09-15T07:14:39.403Z,17.35
2022-09-15T07:16:44.322Z,17.50
2022-09-15T07:18:49.742Z,17.41
2022-09-15T07:20:55.061Z,17.53
2022-09-15T07:22:59.745Z,17.56
2022-09-15T07:25:04.561Z,17.70
2022-09-15T07:27:09.706Z,17.65
2022-09-15T07:29:14.234Z,17.60
2022-09-15T07:31:23.770Z,17.69
2022-09-15T07:33:28.911Z,17.68
2022-09-15T07:35:33.434Z,17.63
2022-09-15T07:37:38.534Z,17.72
2022-09-15T07:39:43.287Z,17.78
2022-09-15T07:41:48.071Z,17.73
2022-09-15T07:43:54.482Z,17.81
2022-09-15T07:46:00.034Z,17.88
2022-09-15T07:48:07.559Z,17.95
2022-09-15T07:50:14.426Z,18.00
2022-09-15T07:52:19.368Z,18.06
2022-09-15T07:54:24.097Z,18.13
2022-09-15T07:56:28.873Z,18.13
2022-09-15T07:58:35.590Z,18.15
2022-09-15T08:00:40.579Z,18.08
2022-09-15T08:02:45.270Z,18.04
2022-09-15T08:04:53.155Z,18.15
2022-09-15T08:06:57.930Z,18.27
2022-09-15T08:09:02.881Z,18.21
2022-09-15T08:11:14.037Z,18.19
2022-09-15T08:13:21.161Z,18.31
2022-09-15T08:15:26.372Z,18.41
2022-09-15T08:17:31.208Z,18.60
2022-09-15T08:19:37.982Z,18.77
2022-09-15T08:21:45.372Z,18.62
2022-09-15T08:23:55.984Z,18.68
2022-09-15T08:26:01.135Z,18.57
2022-09-15T08:28:05.897Z,18.66
2022-09-15T08:30:11.552Z,18.84
2022-09-15T08:32:16.404Z,19.08
2022-09-15T08:34:21.705Z,19.13
2022-09-15T08:36:28.301Z,19.23
2022-09-15T08:38:36.699Z,19.24
2022-09-15T08:40:46.052Z,19.17
2022-09-15T08:42:55.351Z,19.07
2022-09-15T08:45:04.251Z,19.20
2022-09-15T08:47:15.051Z,19.21
2022-09-15T08:49:50.025Z,19.24
2022-09-15T08:51:54.831Z,19.34
2022-09-15T08:54:06.314Z,19.10
2022-09-15T08:56:19.387Z,18.98
2022-09-15T08:58:26.035Z,19.05
2022-09-15T09:00:32.394Z,19.08
2022-09-15T09:03:07.700Z,19.04
2022-09-15T09:05:25.140Z,19.11
2022-09-15T09:07:52.921Z,19.05
2022-09-15T09:10:11.994Z,19.07
2022-09-15T09:12:32.368Z,18.94
2022-09-15T09:14:50.522Z,19.00
2022-09-15T09:17:13.379Z,18.94
2022-09-15T09:19:31.998Z,18.84
2022-09-15T09:21:41.571Z,18.87
2022-09-15T09:23:57.569Z,18.88
2022-09-15T09:26:09.889Z,19.01
2022-09-15T09:28:32.691Z,19.03
2022-09-15T09:30:39.019Z,19.10
2022-09-15T09:32:49.129Z,19.14
2022-09-15T09:35:02.103Z,19.11
2022-09-15T09:37:14.355Z,19.07
2022-09-15T09:39:19.194Z,19.03
2022-09-15T09:41:35.809Z,18.91
2022-09-15T09:43:41.074Z,18.80
2022-09-15T09:45:46.118Z,18.80
2022-09-15T09:47:50.947Z,18.89
2022-09-15T09:49:55.721Z,18.87
2022-09-15T09:52:03.692Z,19.05
2022-09-15T09:54:20.640Z,19.10
2022-09-15T09:56:29.700Z,19.23
2022-09-15T09:58:34.510Z,19.19
2022-09-15T10:00:41.827Z,19.19
2022-09-15T10:02:50.450Z,19.22
2022-09-15T10:04:56.807Z,19.36
2022-09-15T10:07:02.583Z,19.37
2022-09-15T10:09:16.928Z,19.35
2022-09-15T10:11:22.405Z,19.52
2022-09-15T10:13:29.778Z,19.61
2022-09-15T10:15:37.175Z,19.53
2022-09-15T10:17:45.369Z,19.44
2022-09-15T10:19:52.777Z,19.29
2022-09-15T10:21:58.460Z,19.08
2022-09-15T10:24:27.676Z,18.91
2022-09-15T10:26:35.758Z,18.82
2022-09-15T10:28:43.181Z,18.84
2022-09-15T10:31:06.022Z,18.69
2022-09-15T10:33:22.097Z,18.70
2022-09-15T10:35:26.986Z,18.72
2022-09-15T10:37:36.799Z,18.70
2022-09-15T10:39:54.793Z,18.77
2022-09-15T10:42:08.188Z,18.92
2022-09-15T10:44:30.394Z,18.81
2022-09-15T10:46:46.618Z,18.66
2022-09-15T10:49:06.634Z,18.57
2022-09-15T10:51:26.861Z,18.46
2022-09-15T10:53:57.158Z,18.26
2022-09-15T10:56:10.921Z,18.28
2022-09-15T10:58:31.765Z,18.37
2022-09-15T11:00:47.445Z,18.59
2022-09-15T11:03:09.887Z,18.57
2022-09-15T11:05:32.580Z,18.72
2022-09-15T11:07:47.820Z,18.80
2022-09-15T11:09:57.792Z,18.78
2022-09-15T11:12:16.760Z,18.99
2022-09-15T11:14:35.678Z,19.23
2022-09-15T11:16:58.942Z,19.47
2022-09-15T11:19:21.516Z,19.60
2022-09-15T11:21:32.693Z,19.47
2022-09-15T11:23:42.875Z,19.55
2022-09-15T11:25:51.641Z,19.65
2022-09-15T11:28:02.862Z,19.43
2022-09-15T11:30:17.331Z,19.35
2022-09-15T11:32:29.567Z,19.34
2022-09-15T11:34:38.377Z,19.38
2022-09-15T11:36:50.536Z,19.47
2022-09-15T11:38:59.061Z,19.52
2022-09-15T11:41:16.948Z,19.58
2022-09-15T11:43:30.750Z,19.64
2022-09-15T11:45:44.466Z,19.61
2022-09-15T11:47:56.480Z,19.81
2022-09-15T11:50:08.643Z,19.86
2022-09-15T11:52:41.580Z,19.99
2022-09-15T11:54:51.927Z,20.08
2022-09-15T11:56:57.981Z,19.94
2022-09-15T11:59:10.620Z,19.65
2022-09-15T12:01:19.503Z,19.44
2022-09-15T12:03:35.438Z,19.39
2022-09-15T12:05:46.173Z,19.41
2022-09-15T12:07:56.544Z,19.18
2022-09-15T12:10:08.911Z,19.13
2022-09-15T12:12:19.460Z,19.26
2022-09-15T12:14:31.774Z,19.18
2022-09-15T12:16:38.104Z,19.08
2022-09-15T12:18:52.515Z,19.04
2022-09-15T12:21:04.663Z,19.05
2022-09-15T12:23:23.645Z,19.09
2022-09-15T12:25:33.501Z,18.99
2022-09-15T12:27:39.032Z,18.77
2022-09-15T12:29:51.263Z,18.70
2022-09-15T12:32:22.655Z,18.67
2022-09-15T12:34:41.148Z,18.77
2022-09-15T12:36:48.136Z,18.78
2022-09-15T12:38:53.029Z,18.85
2022-09-15T12:41:02.480Z,18.84
2022-09-15T12:43:23.020Z,18.73
2022-09-15T12:45:30.364Z,18.64
2022-09-15T12:47:38.217Z,18.58
2022-09-15T12:49:50.613Z,18.49
2022-09-15T12:51:55.670Z,18.47
2022-09-15T12:54:04.789Z,18.61
2022-09-15T12:56:13.135Z,18.57
2022-09-15T12:58:21.132Z,18.68
2022-09-15T13:00:42.412Z,18.59
2022-09-15T13:02:55.560Z,18.44
2022-09-15T13:05:03.149Z,18.38
2022-09-15T13:07:49.558Z,18.39
2022-09-15T13:10:01.357Z,18.37
2022-09-15T13:12:08.814Z,18.39
2022-09-15T13:14:36.115Z,18.42
2022-09-15T13:16:49.340Z,18.56
2022-09-15T13:19:06.436Z,18.42
2022-09-15T13:21:18.707Z,18.25
2022-09-15T13:23:28.221Z,18.18
2022-09-15T13:25:33.846Z,18.14
2022-09-15T13:27:44.335Z,18.21
2022-09-15T13:29:52.297Z,18.31
2022-09-15T13:32:06.360Z,18.30
2022-09-15T13:40:09.729Z,18.73
2022-09-15T13:42:33.607Z,18.79
2022-09-15T13:44:56.699Z,18.73
2022-09-15T13:47:15.351Z,18.77
2022-09-15T13:49:41.289Z,18.99
2022-09-15T13:51:53.608Z,19.11
2022-09-15T13:54:05.267Z,19.38
2022-09-15T13:56:13.255Z,19.51
2022-09-15T14:00:51.750Z,20.07
2022-09-15T14:02:59.339Z,20.15
2022-09-15T14:05:04.250Z,20.25
2022-09-15T14:07:09.034Z,20.28
2022-09-15T14:09:19.937Z,20.12
2022-09-15T14:11:29.340Z,19.90
2022-09-15T14:13:34.642Z,19.55
2022-09-15T14:15:39.601Z,19.48
2022-09-15T14:17:47.895Z,19.45
2022-09-15T14:19:54.380Z,19.25
2022-09-15T14:21:59.280Z,19.13
2022-09-15T14:24:08.343Z,19.28
2022-09-15T14:26:17.632Z,19.18
2022-09-15T14:28:32.658Z,19.24
2022-09-15T14:30:37.928Z,19.23
2022-09-15T14:32:47.932Z,19.36
2022-09-15T14:34:53.684Z,19.29
2022-09-15T14:37:04.739Z,19.29
2022-09-15T14:39:21.269Z,19.15
2022-09-15T14:41:28.635Z,19.07
2022-09-15T14:43:35.679Z,19.07
2022-09-15T14:48:10.895Z,19.39
2022-09-15T14:50:18.036Z,19.29
2022-09-15T14:52:29.507Z,19.25
2022-09-15T14:54:39.332Z,19.34
2022-09-15T14:56:47.553Z,19.41
2022-09-15T14:58:56.805Z,19.48
2022-09-15T15:01:05.474Z,19.35
2022-09-15T15:03:25.853Z,19.28
2022-09-15T15:05:36.342Z,19.26
2022-09-15T15:07:42.226Z,19.08
2022-09-15T15:09:51.064Z,19.09
2022-09-15T15:12:02.522Z,19.09
2022-09-15T15:14:11.869Z,19.11
2022-09-15T15:16:23.440Z,19.14
2022-09-15T15:18:38.983Z,19.16
2022-09-15T15:20:52.242Z,19.09
2022-09-15T15:23:15.498Z,19.11
2022-09-15T15:25:27.628Z,18.93
2022-09-15T15:27:54.710Z,18.90
2022-09-15T15:29:59.578Z,19.06
2022-09-15T15:32:07.794Z,19.14
2022-09-15T15:34:27.444Z,19.16
2022-09-15T15:36:32.996Z,19.21
2022-09-15T15:38:42.627Z,19.06
2022-09-15T15:40:50.036Z,18.88
2022-09-15T15:43:00.012Z,18.74
2022-09-15T15:45:22.379Z,18.72
2022-09-15T15:47:28.416Z,18.71
2022-09-15T15:49:34.759Z,18.62
2022-09-15T15:51:39.844Z,18.64
2022-09-15T15:53:44.604Z,18.63
2022-09-15T15:55:49.420Z,18.51
2022-09-15T15:57:58.561Z,18.52
2022-09-15T16:00:03.812Z,18.40
2022-09-15T16:02:13.708Z,18.42
2022-09-15T16:04:18.488Z,18.33
2022-09-15T16:06:23.633Z,18.37
2022-09-15T16:08:31.101Z,18.23
2022-09-15T16:10:43.094Z,18.08
2022-09-15T16:12:48.193Z,18.05
2022-09-15T16:14:55.493Z,18.03
2022-09-15T16:17:00.341Z,18.07
2022-09-15T16:19:05.348Z,18.14
2022-09-15T16:21:10.177Z,18.09
2022-09-15T16:23:17.699Z,18.00
2022-09-15T16:25:30.441Z,18.02
2022-09-15T16:27:35.333Z,18.01
2022-09-15T16:29:40.102Z,17.98
2022-09-15T16:31:47.639Z,17.90
2022-09-15T16:33:52.590Z,17.80
2022-09-15T16:36:06.551Z,17.79
2022-09-15T16:38:11.874Z,17.84
2022-09-15T16:40:18.102Z,17.85
2022-09-15T16:42:22.958Z,17.82
2022-09-15T16:44:27.753Z,17.65
2022-09-15T16:46:32.665Z,17.62
2022-09-15T16:48:40.436Z,17.66
2022-09-15T16:51:01.750Z,17.65
2022-09-15T16:53:12.310Z,17.61
2022-09-15T16:55:26.122Z,17.61
2022-09-15T16:57:30.854Z,17.57
2022-09-15T16:59:36.116Z,17.51
2022-09-15T17:01:41.262Z,17.33
2022-09-15T17:03:48.867Z,17.33
2022-09-15T17:05:55.264Z,17.20
2022-09-15T17:08:00.015Z,17.17
2022-09-15T17:10:08.001Z,17.09
2022-09-15T17:14:39.297Z,17.10
2022-09-15T17:16:47.404Z,17.08
2022-09-15T17:18:54.906Z,17.05
2022-09-15T17:20:59.737Z,16.94
2022-09-15T17:23:05.439Z,16.86
2022-09-15T17:25:23.090Z,16.68
2022-09-15T17:27:27.835Z,16.63
2022-09-15T17:29:32.607Z,16.57
2022-09-15T17:31:37.532Z,16.57
2022-09-15T17:33:42.405Z,16.59
2022-09-15T17:35:50.710Z,16.56
2022-09-15T17:37:56.105Z,16.56
2022-09-15T17:40:01.245Z,16.59
2022-09-15T17:42:05.822Z,16.46
2022-09-15T17:44:16.137Z,16.46
2022-09-15T17:46:20.985Z,16.42
2022-09-15T17:48:26.547Z,16.41
2022-09-15T17:50:33.888Z,16.39
2022-09-15T17:52:41.815Z,16.34
2022-09-15T17:54:46.667Z,16.37
2022-09-15T17:56:51.435Z,16.40
2022-09-15T17:58:56.275Z,16.39
2022-09-15T18:01:01.880Z,16.38
2022-09-15T18:03:15.903Z,16.33
2022-09-15T18:05:23.640Z,16.29
2022-09-15T18:07:29.481Z,16.22
2022-09-15T18:09:36.808Z,16.16
2022-09-15T18:11:41.671Z,16.10
2022-09-15T18:13:46.539Z,16.08
2022-09-15T18:15:52.256Z,16.11
2022-09-15T18:17:58.789Z,16.09
2022-09-15T18:20:03.974Z,16.10
2022-09-15T18:22:08.853Z,15.95
2022-09-15T18:24:17.881Z,16.00
2022-09-15T18:26:26.859Z,15.95
2022-09-15T18:28:31.891Z,15.92
2022-09-15T18:30:40.749Z,15.94
2022-09-15T18:32:45.791Z,15.88
2022-09-15T18:34:50.547Z,15.81
2022-09-15T18:36:55.437Z,15.86
2022-09-15T18:39:01.003Z,15.90
2022-09-15T18:41:05.884Z,15.89
2022-09-15T18:43:13.305Z,15.89
2022-09-15T18:45:19.769Z,15.82
2022-09-15T18:47:24.653Z,15.82
2022-09-15T18:49:29.628Z,15.78
2022-09-15T18:51:51.295Z,15.73
2022-09-15T18:53:57.398Z,15.77
2022-09-15T18:56:02.138Z,15.82
2022-09-15T18:58:06.898Z,15.82
2022-09-15T19:00:17.731Z,15.82
2022-09-15T19:02:22.577Z,15.83
2022-09-15T19:04:31.842Z,15.89
2022-09-15T19:06:41.456Z,15.89
2022-09-15T19:08:46.290Z,15.93
2022-09-15T19:11:00.282Z,15.92
2022-09-15T19:13:05.070Z,15.96
2022-09-15T19:15:11.734Z,16.02
2022-09-15T19:17:19.322Z,15.99
2022-09-15T19:19:24.218Z,15.94
2022-09-15T19:21:28.969Z,15.99
2022-09-15T19:23:33.903Z,16.05
2022-09-15T19:25:40.396Z,16.06
2022-09-15T19:27:45.188Z,16.07
2022-09-15T19:29:50.575Z,16.09
2022-09-15T19:31:55.342Z,16.00
2022-09-15T19:34:04.229Z,15.97
2022-09-15T19:36:27.432Z,16.02
2022-09-15T19:38:33.689Z,16.09
2022-09-15T19:40:40.855Z,16.16
2022-09-15T19:42:46.996Z,16.20
2022-09-15T19:44:52.150Z,16.24
2022-09-15T19:46:56.815Z,16.23
2022-09-15T19:49:04.692Z,16.20
2022-09-15T19:51:10.291Z,16.17
2022-09-15T19:53:15.287Z,16.13
2022-09-15T19:55:20.171Z,16.07
2022-09-15T19:57:25.413Z,16.03
2022-09-15T19:59:31.560Z,16.04
2022-09-15T20:01:37.202Z,16.04
2022-09-15T20:03:42.094Z,16.06
2022-09-15T20:05:54.714Z,16.15
2022-09-15T20:08:00.775Z,16.19
2022-09-15T20:10:06.345Z,16.23
2022-09-15T20:12:11.384Z,16.28
2022-09-15T20:14:15.992Z,16.17
2022-09-15T20:16:23.026Z,16.18
2022-09-15T20:18:28.322Z,16.22
2022-09-15T20:20:33.530Z,16.26
2022-09-15T20:22:40.669Z,16.24
2022-09-15T20:24:45.402Z,16.24
2022-09-15T20:26:50.454Z,16.21
2022-09-15T20:28:55.358Z,16.19
2022-09-15T20:31:09.326Z,16.21
2022-09-15T20:33:14.546Z,16.17
2022-09-15T20:35:19.494Z,16.11
2022-09-15T20:37:24.548Z,15.90
2022-09-15T20:39:32.008Z,15.87
2022-09-15T20:41:37.057Z,15.82
2022-09-15T20:43:42.749Z,15.84
2022-09-15T20:45:56.663Z,15.88
2022-09-15T20:48:01.637Z,15.90
2022-09-15T20:50:06.846Z,15.86
2022-09-15T20:52:11.467Z,15.83
2022-09-15T20:54:16.323Z,15.83
2022-09-15T20:56:25.657Z,15.86
2022-09-15T20:58:31.011Z,15.86
2022-09-15T21:00:35.903Z,15.83
2022-09-15T21:02:40.671Z,15.82
2022-09-15T21:04:45.604Z,15.83
2022-09-15T21:06:50.723Z,15.88
2022-09-15T21:08:56.219Z,15.95
2022-09-15T21:11:01.841Z,16.00
2022-09-15T21:13:09.308Z,16.04
2022-09-15T21:15:14.297Z,15.98
2022-09-15T21:17:19.143Z,15.93
2022-09-15T21:19:23.881Z,15.92
2022-09-15T21:21:30.504Z,15.91
2022-09-15T21:23:37.519Z,15.84
2022-09-15T21:25:42.270Z,15.79
2022-09-15T21:27:47.015Z,15.76
2022-09-15T21:29:54.531Z,15.77
2022-09-15T21:31:59.368Z,15.69
2022-09-15T21:34:04.653Z,15.68
2022-09-15T21:36:10.110Z,15.58
2022-09-15T21:38:15.116Z,15.58
2022-09-15T21:40:19.928Z,15.58
2022-09-15T21:42:24.984Z,15.51
2022-09-15T21:44:29.841Z,15.47
2022-09-15T21:46:37.222Z,15.50
2022-09-15T21:48:42.454Z,15.48
2022-09-15T21:50:52.406Z,15.53
2022-09-15T21:52:57.623Z,15.58
2022-09-15T21:55:02.306Z,15.57
2022-09-15T21:57:07.052Z,15.63
2022-09-15T21:59:13.389Z,15.70
2022-09-15T22:01:23.876Z,15.77
2022-09-15T22:03:31.630Z,15.80
2022-09-15T22:05:36.389Z,15.82
2022-09-15T22:07:42.181Z,15.85
2022-09-15T22:09:46.966Z,15.86
2022-09-15T22:11:52.189Z,15.88
2022-09-15T22:13:56.677Z,15.86
2022-09-15T22:16:05.518Z,15.84
2022-09-15T22:18:10.424Z,15.83
2022-09-15T22:20:18.106Z,15.83
2022-09-15T22:22:23.719Z,15.84
2022-09-15T22:24:28.627Z,15.83
2022-09-15T22:26:35.804Z,15.87
2022-09-15T22:28:40.756Z,15.89
2022-09-15T22:30:48.308Z,15.94
2022-09-15T22:32:53.138Z,15.88
2022-09-15T22:34:57.921Z,15.84
2022-09-15T22:37:05.305Z,15.81
2022-09-15T22:39:10.516Z,15.80
2022-09-15T22:41:16.136Z,15.76
2022-09-15T22:43:21.124Z,15.72
2022-09-15T22:45:26.017Z,15.68
2022-09-15T22:47:30.816Z,15.57
2022-09-15T22:49:35.667Z,15.48
2022-09-15T22:51:40.704Z,15.36
2022-09-15T22:53:48.188Z,15.31
2022-09-15T22:55:53.137Z,15.33
2022-09-15T22:57:58.011Z,15.42
2022-09-15T23:00:02.778Z,15.32
2022-09-15T23:02:07.765Z,15.39
2022-09-15T23:04:12.747Z,15.43
2022-09-15T23:06:17.568Z,15.45
2022-09-15T23:08:22.343Z,15.44
2022-09-15T23:10:29.952Z,15.46
2022-09-15T23:12:35.488Z,15.49
2022-09-15T23:14:40.278Z,15.58
2022-09-15T23:16:45.719Z,15.50
2022-09-15T23:18:51.140Z,15.42
2022-09-15T23:21:01.136Z,15.42
2022-09-15T23:23:06.344Z,15.40
2022-09-15T23:25:11.546Z,15.22
2022-09-15T23:27:18.984Z,15.17
2022-09-15T23:29:26.200Z,15.05
2022-09-15T23:31:31.053Z,14.92
2022-09-15T23:33:36.060Z,15.00
2022-09-15T23:35:40.739Z,15.01
2022-09-15T23:37:45.453Z,15.03
2022-09-15T23:39:50.628Z,14.99
2022-09-15T23:41:55.202Z,14.94
2022-09-15T23:44:02.584Z,15.03
2022-09-15T23:46:07.973Z,15.06
2022-09-15T23:48:13.377Z,15.10
2022-09-15T23:50:18.357Z,15.13
2022-09-15T23:52:23.125Z,15.13
2022-09-15T23:54:28.098Z,15.20
2022-09-15T23:56:33.899Z,15.26
2022-09-15T23:58:41.325Z,15.35
